createdAt,value
2022-11-12T00:01:50.149Z,1.73
2022-11-12T00:03:52.065Z,1.40
2022-11-12T00:05:53.940Z,1.42
2022-11-12T00:07:55.635Z,2.38
2022-11-12T00:09:57.294Z,1.80
2022-11-12T00:11:58.932Z,1.58
2022-11-12T00:14:00.616Z,1.83
2022-11-12T00:16:02.282Z,1.50
2022-11-12T00:18:04.108Z,2.03
2022-11-12T00:20:07.072Z,1.70
2022-11-12T00:22:08.769Z,1.98
2022-11-12T00:24:10.553Z,1.73
2022-11-12T00:26:12.333Z,2.17
2022-11-12T00:28:13.959Z,2.00
2022-11-12T00:30:16.065Z,1.90
2022-11-12T00:32:17.751Z,2.60
2022-11-12T00:34:19.530Z,1.73
2022-11-12T00:36:21.373Z,1.83
2022-11-12T00:38:23.243Z,1.20
2022-11-12T00:40:25.745Z,1.60
2022-11-12T00:42:27.434Z,1.55
2022-11-12T00:44:29.665Z,1.45
2022-11-12T00:46:31.554Z,1.48
2022-11-12T00:48:33.288Z,1.42
2022-11-12T00:50:34.976Z,1.70
2022-11-12T00:52:36.804Z,2.10
2022-11-12T00:54:38.620Z,1.65
2022-11-12T00:56:40.269Z,1.42
2022-11-12T00:58:42.278Z,1.50
2022-11-12T01:00:44.035Z,1.83
2022-11-12T01:02:50.649Z,1.58
2022-11-12T01:04:52.887Z,1.63
2022-11-12T01:06:54.772Z,1.45
2022-11-12T01:08:56.456Z,2.30
2022-11-12T01:11:12.410Z,1.65
2022-11-12T01:13:14.445Z,1.40
2022-11-12T01:15:16.201Z,1.48
2022-11-12T01:17:17.824Z,2.20
2022-11-12T01:19:19.532Z,1.50
2022-11-12T01:21:22.481Z,1.55
2022-11-12T01:23:24.203Z,1.13
2022-11-12T01:25:25.948Z,1.38
2022-11-12T01:27:30.170Z,1.30
2022-11-12T01:29:31.999Z,1.20
2022-11-12T01:31:36.351Z,1.38
2022-11-12T01:33:38.702Z,1.15
2022-11-12T01:35:40.379Z,1.63
2022-11-12T01:37:42.049Z,1.48
2022-11-12T01:39:43.712Z,1.70
2022-11-12T01:41:45.377Z,1.20
2022-11-12T01:43:47.144Z,1.50
2022-11-12T01:45:50.197Z,1.13
2022-11-12T01:47:52.435Z,1.60
2022-11-12T01:49:57.518Z,1.38
2022-11-12T01:52:17.886Z,1.10
2022-11-12T01:54:20.433Z,1.20
2022-11-12T01:56:23.017Z,0.90
2022-11-12T01:58:28.008Z,1.15
2022-11-12T02:00:29.972Z,1.35
2022-11-12T02:02:32.125Z,1.10
2022-11-12T02:04:34.892Z,1.10
2022-11-12T02:06:37.047Z,1.30
2022-11-12T02:08:38.930Z,1.30
2022-11-12T02:10:41.029Z,1.60
2022-11-12T02:13:01.640Z,1.33
2022-11-12T02:15:04.015Z,1.52
2022-11-12T02:17:05.642Z,1.40
2022-11-12T02:19:10.750Z,1.30
2022-11-12T02:21:12.404Z,1.10
2022-11-12T02:23:14.032Z,1.75
2022-11-12T02:25:23.524Z,1.20
2022-11-12T02:27:25.275Z,1.20
2022-11-12T02:29:26.984Z,1.65
2022-11-12T02:31:29.228Z,1.48
2022-11-12T02:33:30.859Z,1.25
2022-11-12T02:35:32.901Z,1.13
2022-11-12T02:37:34.494Z,1.50
2022-11-12T02:39:36.229Z,1.35
2022-11-12T02:41:37.855Z,1.30
2022-11-12T02:43:40.499Z,1.52
2022-11-12T02:45:42.168Z,1.30
2022-11-12T02:47:43.888Z,1.45
2022-11-12T02:49:45.544Z,1.15
2022-11-12T02:51:47.158Z,1.27
2022-11-12T02:53:48.770Z,1.00
2022-11-12T02:55:50.658Z,1.50
2022-11-12T02:57:52.486Z,1.33
2022-11-12T02:59:54.174Z,1.30
2022-11-12T03:01:55.835Z,1.30
2022-11-12T03:03:57.583Z,1.30
2022-11-12T03:06:01.110Z,1.02
2022-11-12T03:08:08.376Z,1.48
2022-11-12T03:10:10.144Z,1.10
2022-11-12T03:12:11.747Z,1.20
2022-11-12T03:14:13.486Z,1.08
2022-11-12T03:16:15.132Z,1.00
2022-11-12T03:18:16.847Z,0.90
2022-11-12T03:20:21.195Z,1.40
2022-11-12T03:22:22.885Z,1.25
2022-11-12T03:24:24.569Z,0.98
2022-11-12T03:26:26.208Z,1.15
2022-11-12T03:28:28.175Z,1.75
2022-11-12T03:30:32.690Z,1.08
2022-11-12T03:32:34.316Z,0.98
2022-11-12T03:34:35.976Z,1.15
2022-11-12T03:36:37.666Z,1.48
2022-11-12T03:38:39.359Z,1.27
2022-11-12T03:40:41.051Z,1.35
2022-11-12T03:42:49.722Z,1.33
2022-11-12T03:44:51.424Z,1.30
2022-11-12T03:46:53.069Z,1.38
2022-11-12T03:48:54.751Z,1.55
2022-11-12T03:51:00.346Z,1.17
2022-11-12T03:53:02.067Z,1.33
2022-11-12T03:55:04.762Z,1.35
2022-11-12T03:57:06.538Z,1.25
2022-11-12T03:59:08.175Z,1.50
2022-11-12T04:01:09.969Z,1.27
2022-11-12T04:03:11.644Z,1.30
2022-11-12T04:05:32.131Z,1.60
2022-11-12T04:07:52.669Z,1.55
2022-11-12T04:09:54.339Z,1.25
2022-11-12T04:12:15.905Z,1.42
2022-11-12T04:14:17.585Z,1.95
2022-11-12T04:16:39.487Z,2.03
2022-11-12T04:19:00.113Z,1.83
2022-11-12T04:21:20.275Z,2.03
2022-11-12T04:23:21.901Z,1.90
2022-11-12T04:25:42.189Z,1.60
2022-11-12T04:27:43.810Z,2.03
2022-11-12T04:30:04.939Z,2.08
2022-11-12T04:32:06.591Z,1.67
2022-11-12T04:34:43.888Z,1.50
2022-11-12T04:36:45.626Z,1.67
2022-11-12T04:38:47.264Z,2.10
2022-11-12T04:41:07.534Z,2.22
2022-11-12T04:43:30.075Z,2.00
2022-11-12T04:45:31.772Z,2.10
2022-11-12T04:47:41.280Z,1.60
2022-11-12T04:49:43.020Z,2.15
2022-11-12T04:52:03.090Z,2.00
2022-11-12T04:54:04.757Z,1.65
2022-11-12T04:56:06.682Z,1.95
2022-11-12T04:58:08.325Z,2.15
2022-11-12T05:00:11.560Z,1.98
2022-11-12T05:02:13.245Z,2.25
2022-11-12T05:04:14.914Z,2.33
2022-11-12T05:06:35.180Z,1.95
2022-11-12T05:08:36.798Z,1.50
2022-11-12T05:10:38.449Z,1.80
2022-11-12T05:12:40.096Z,1.80
2022-11-12T05:14:41.747Z,2.72
2022-11-12T05:16:43.742Z,1.60
2022-11-12T05:18:45.361Z,1.98
2022-11-12T05:20:47.106Z,1.65
2022-11-12T05:23:04.958Z,2.17
2022-11-12T05:25:08.459Z,1.95
2022-11-12T05:27:11.485Z,1.92
2022-11-12T05:29:13.158Z,1.88
2022-11-12T05:31:14.768Z,1.65
2022-11-12T05:33:16.349Z,1.90
2022-11-12T05:35:18.068Z,2.17
2022-11-12T05:37:19.903Z,2.17
2022-11-12T05:39:21.690Z,1.73
2022-11-12T05:41:23.342Z,2.03
2022-11-12T05:43:24.916Z,1.92
2022-11-12T05:45:26.586Z,1.70
2022-11-12T05:47:28.243Z,2.50
2022-11-12T05:49:30.141Z,1.83
2022-11-12T05:51:31.833Z,1.75
2022-11-12T05:53:33.495Z,1.80
2022-11-12T05:55:37.165Z,1.95
2022-11-12T05:57:38.946Z,1.52
2022-11-12T05:59:40.636Z,1.80
2022-11-12T06:01:44.185Z,1.58
2022-11-12T06:03:45.894Z,1.85
2022-11-12T06:05:47.543Z,1.83
2022-11-12T06:07:49.155Z,1.33
2022-11-12T06:09:50.799Z,1.60
2022-11-12T06:11:52.400Z,1.70
2022-11-12T06:13:54.037Z,1.77
2022-11-12T06:15:56.094Z,1.40
2022-11-12T06:17:57.786Z,1.98
2022-11-12T06:19:59.420Z,1.35
2022-11-12T06:22:01.047Z,1.55
2022-11-12T06:24:02.930Z,2.00
2022-11-12T06:26:04.683Z,1.23
2022-11-12T06:28:06.289Z,2.10
2022-11-12T06:30:10.903Z,2.58
2022-11-12T06:32:12.526Z,1.33
2022-11-12T06:34:14.200Z,2.00
2022-11-12T06:36:18.465Z,2.22
2022-11-12T06:38:20.093Z,1.75
2022-11-12T06:40:21.745Z,1.98
2022-11-12T06:42:23.458Z,1.88
2022-11-12T06:44:25.062Z,2.90
2022-11-12T06:46:26.670Z,2.33
2022-11-12T06:48:29.236Z,2.45
2022-11-12T06:50:30.903Z,2.35
2022-11-12T06:52:32.521Z,2.08
2022-11-12T06:54:34.250Z,2.05
2022-11-12T06:56:35.876Z,1.88
2022-11-12T06:58:37.600Z,1.83
2022-11-12T07:00:39.255Z,2.40
2022-11-12T07:02:40.871Z,2.13
2022-11-12T07:04:42.520Z,1.92
2022-11-12T07:06:44.254Z,2.65
2022-11-12T07:08:49.833Z,1.85
2022-11-12T07:10:56.984Z,3.17
2022-11-12T07:12:58.980Z,2.45
2022-11-12T07:15:00.621Z,1.80
2022-11-12T07:17:02.324Z,2.90
2022-11-12T07:19:04.511Z,2.03
2022-11-12T07:21:12.049Z,2.10
2022-11-12T07:23:13.702Z,2.85
2022-11-12T07:25:15.370Z,2.63
2022-11-12T07:27:17.032Z,2.30
2022-11-12T07:29:35.611Z,2.70
2022-11-12T07:31:40.369Z,2.22
2022-11-12T07:33:42.866Z,2.28
2022-11-12T07:35:44.505Z,2.10
2022-11-12T07:37:46.122Z,2.13
2022-11-12T07:39:47.744Z,1.95
2022-11-12T07:41:49.371Z,2.20
2022-11-12T07:43:53.033Z,2.00
2022-11-12T07:45:58.691Z,2.17
2022-11-12T07:48:00.347Z,1.95
2022-11-12T07:50:02.012Z,2.28
2022-11-12T07:52:03.751Z,1.95
2022-11-12T07:54:05.513Z,2.20
2022-11-12T07:56:07.370Z,2.35
2022-11-12T07:58:09.058Z,2.90
2022-11-12T08:00:12.300Z,2.63
2022-11-12T08:02:13.980Z,2.45
2022-11-12T08:04:15.686Z,3.13
2022-11-12T08:06:17.407Z,3.00
2022-11-12T08:08:19.185Z,2.42
2022-11-12T08:10:20.844Z,2.80
2022-11-12T08:12:22.437Z,2.15
2022-11-12T08:14:24.830Z,2.55
2022-11-12T08:16:26.518Z,2.25
2022-11-12T08:18:28.857Z,2.63
2022-11-12T08:20:30.691Z,3.60
2022-11-12T08:22:32.328Z,3.33
2022-11-12T08:24:33.987Z,3.10
2022-11-12T08:26:35.685Z,2.13
2022-11-12T08:28:37.686Z,2.70
2022-11-12T08:30:39.312Z,3.55
2022-11-12T08:32:40.972Z,3.25
2022-11-12T08:34:43.846Z,2.67
2022-11-12T08:36:45.542Z,2.53
2022-11-12T08:38:47.509Z,2.53
2022-11-12T08:40:49.159Z,2.08
2022-11-12T08:43:00.174Z,2.72
2022-11-12T08:45:01.827Z,3.10
2022-11-12T08:47:03.696Z,2.70
2022-11-12T08:49:05.379Z,2.80
2022-11-12T08:51:07.932Z,2.88
2022-11-12T08:53:12.350Z,3.55
2022-11-12T08:55:14.068Z,2.45
2022-11-12T08:57:15.997Z,2.70
2022-11-12T08:59:17.634Z,2.97
2022-11-12T09:01:19.392Z,2.78
2022-11-12T09:03:23.123Z,3.45
2022-11-12T09:05:24.787Z,2.83
2022-11-12T09:07:48.681Z,2.80
2022-11-12T09:09:48.267Z,3.20
2022-11-12T09:11:49.885Z,3.10
2022-11-12T09:13:54.904Z,2.78
2022-11-12T09:16:01.399Z,3.28
2022-11-12T09:18:05.191Z,3.35
2022-11-12T09:20:09.819Z,4.57
2022-11-12T09:22:11.505Z,2.92
2022-11-12T09:24:13.307Z,3.20
2022-11-12T09:26:14.925Z,3.17
2022-11-12T09:28:18.495Z,3.95
2022-11-12T09:30:20.332Z,2.75
2022-11-12T09:32:22.087Z,3.85
2022-11-12T09:34:23.735Z,4.05
2022-11-12T09:36:25.438Z,4.07
2022-11-12T09:38:27.453Z,4.75
2022-11-12T09:40:44.613Z,2.47
2022-11-12T09:42:53.441Z,3.58
2022-11-12T09:45:04.350Z,3.60
2022-11-12T09:47:15.510Z,3.95
2022-11-12T09:49:21.657Z,4.25
2022-11-12T09:51:32.184Z,3.30
2022-11-12T09:53:49.197Z,3.38
2022-11-12T09:55:51.016Z,3.97
2022-11-12T09:57:52.685Z,4.22
2022-11-12T09:59:54.391Z,3.70
2022-11-12T10:02:33.100Z,3.97
2022-11-12T10:05:22.507Z,4.45
2022-11-12T10:08:11.537Z,3.65
2022-11-12T10:10:20.465Z,3.42
2022-11-12T10:12:50.757Z,4.00
2022-11-12T10:15:41.231Z,3.80
2022-11-12T10:18:10.016Z,4.70
2022-11-12T10:20:21.907Z,4.22
2022-11-12T10:23:02.012Z,4.35
2022-11-12T10:25:14.727Z,4.15
2022-11-12T10:27:22.147Z,5.10
2022-11-12T10:29:39.513Z,4.05
2022-11-12T10:31:41.190Z,4.18
2022-11-12T10:33:43.055Z,5.10
2022-11-12T10:35:44.703Z,5.00
2022-11-12T10:38:01.228Z,5.70
2022-11-12T10:40:20.954Z,5.78
2022-11-12T10:42:23.775Z,5.40
2022-11-12T10:44:27.606Z,5.68
2022-11-12T10:46:30.438Z,7.28
2022-11-12T10:48:34.096Z,6.70
2022-11-12T10:50:43.268Z,6.57
2022-11-12T10:53:03.034Z,6.35
2022-11-12T10:55:13.012Z,6.03
2022-11-12T10:57:23.913Z,7.57
2022-11-12T10:59:26.091Z,7.97
2022-11-12T11:01:32.152Z,8.65
2022-11-12T11:03:45.881Z,6.63
2022-11-12T11:05:54.286Z,6.97
2022-11-12T11:07:55.993Z,10.13
2022-11-12T11:10:00.624Z,6.70
2022-11-12T11:12:02.269Z,7.72
2022-11-12T11:14:22.347Z,6.00
2022-11-12T11:16:26.913Z,6.53
2022-11-12T11:18:30.383Z,6.68
2022-11-12T11:20:41.204Z,6.00
2022-11-12T11:22:46.164Z,6.53
2022-11-12T11:25:00.513Z,7.65
2022-11-12T11:27:35.342Z,7.57
2022-11-12T11:29:55.189Z,7.32
2022-11-12T11:32:25.127Z,7.53
2022-11-12T11:34:45.187Z,5.47
2022-11-12T11:37:13.528Z,7.20
2022-11-12T11:39:30.132Z,7.18
2022-11-12T11:41:45.121Z,6.70
2022-11-12T11:44:35.300Z,6.78
2022-11-12T11:46:55.619Z,6.53
2022-11-12T11:49:00.494Z,7.93
2022-11-12T11:51:25.864Z,7.38
2022-11-12T11:53:33.916Z,8.20
2022-11-12T11:55:54.960Z,8.45
2022-11-12T11:58:05.139Z,7.25
2022-11-12T12:00:10.049Z,8.15
2022-11-12T12:02:47.223Z,9.63
2022-11-12T12:04:52.067Z,10.68
2022-11-12T12:07:22.130Z,8.93
2022-11-12T12:09:23.875Z,10.20
2022-11-12T12:11:59.520Z,9.45
2022-11-12T12:14:26.196Z,7.82
2022-11-12T12:16:36.429Z,8.70
2022-11-12T12:18:58.158Z,7.50
2022-11-12T12:21:08.608Z,8.00
2022-11-12T12:23:23.531Z,9.10
2022-11-12T12:25:32.706Z,8.88
2022-11-12T12:27:51.842Z,9.43
2022-11-12T12:30:01.531Z,9.23
2022-11-12T12:32:12.170Z,8.52
2022-11-12T12:34:33.679Z,9.05
2022-11-12T12:36:40.509Z,8.20
2022-11-12T12:38:48.473Z,8.15
2022-11-12T12:41:01.993Z,8.50
2022-11-12T12:43:23.429Z,7.82
2022-11-12T12:45:35.895Z,7.43
2022-11-12T12:47:40.623Z,8.45
2022-11-12T12:49:43.192Z,8.98
2022-11-12T12:51:44.926Z,7.95
2022-11-12T12:53:46.540Z,8.23
2022-11-12T12:55:50.001Z,8.43
2022-11-12T12:57:58.820Z,7.90
2022-11-12T13:00:33.034Z,7.18
2022-11-12T13:02:37.486Z,8.25
2022-11-12T13:04:51.907Z,6.82
2022-11-12T13:06:54.156Z,6.25
2022-11-12T13:09:04.094Z,7.18
2022-11-12T13:11:05.833Z,6.97
2022-11-12T13:13:19.717Z,6.55
2022-11-12T13:15:41.729Z,6.35
2022-11-12T13:17:48.272Z,7.72
2022-11-12T13:19:59.093Z,8.10
2022-11-12T13:22:19.089Z,5.93
2022-11-12T13:24:59.058Z,7.15
2022-11-12T13:27:01.204Z,6.82
2022-11-12T13:29:31.770Z,6.90
2022-11-12T13:31:34.201Z,6.43
2022-11-12T13:33:38.382Z,7.13
2022-11-12T13:35:40.218Z,8.65
2022-11-12T13:37:46.211Z,7.13
2022-11-12T13:39:47.852Z,7.47
2022-11-12T13:42:17.624Z,7.75
2022-11-12T13:44:19.338Z,7.50
2022-11-12T13:46:32.122Z,7.40
2022-11-12T13:48:39.572Z,7.35
2022-11-12T13:50:41.505Z,8.30
2022-11-12T13:52:43.331Z,7.13
2022-11-12T13:54:45.098Z,7.63
2022-11-12T13:56:46.713Z,8.90
2022-11-12T13:58:48.391Z,8.90
2022-11-12T14:00:55.316Z,8.55
2022-11-12T14:03:06.009Z,7.05
2022-11-12T14:05:31.132Z,7.85
2022-11-12T14:07:57.215Z,7.50
2022-11-12T14:10:01.982Z,8.35
2022-11-12T14:12:30.033Z,9.50
2022-11-12T14:15:05.292Z,8.63
2022-11-12T14:17:22.145Z,9.90
2022-11-12T14:19:45.203Z,9.05
2022-11-12T14:22:11.285Z,7.93
2022-11-12T14:24:13.585Z,9.63
2022-11-12T14:26:41.130Z,10.40
2022-11-12T14:28:43.316Z,8.73
2022-11-12T14:30:45.324Z,11.13
2022-11-12T14:32:50.277Z,10.75
2022-11-12T14:34:51.900Z,9.73
2022-11-12T14:36:56.040Z,10.27
2022-11-12T14:38:58.810Z,9.20
2022-11-12T14:41:23.214Z,9.90
2022-11-12T14:43:29.621Z,9.70
2022-11-12T14:45:35.151Z,10.00
2022-11-12T14:47:37.209Z,10.02
2022-11-12T14:49:47.593Z,8.43
2022-11-12T14:51:54.364Z,8.93
2022-11-12T14:54:07.426Z,9.30
2022-11-12T14:56:14.454Z,8.88
2022-11-12T14:58:17.030Z,9.68
2022-11-12T15:00:25.384Z,7.88
2022-11-12T15:02:49.929Z,9.48
2022-11-12T15:05:00.633Z,8.68
2022-11-12T15:07:02.347Z,9.13
2022-11-12T15:09:04.787Z,7.90
2022-11-12T15:11:25.393Z,7.88
2022-11-12T15:13:27.869Z,9.50
2022-11-12T15:15:29.683Z,8.07
2022-11-12T15:17:33.938Z,7.95
2022-11-12T15:19:35.773Z,8.38
2022-11-12T15:21:37.491Z,9.25
2022-11-12T15:23:50.142Z,9.23
2022-11-12T15:26:01.903Z,9.15
2022-11-12T15:28:24.157Z,7.95
2022-11-12T15:30:28.753Z,9.13
2022-11-12T15:32:34.181Z,9.57
2022-11-12T15:34:41.958Z,7.53
2022-11-12T15:36:43.587Z,9.40
2022-11-12T15:38:53.099Z,8.90
2022-11-12T15:40:59.010Z,9.18
2022-11-12T15:43:01.382Z,8.98
2022-11-12T15:45:16.527Z,9.10
2022-11-12T15:47:22.096Z,9.05
2022-11-12T15:49:23.887Z,9.85
2022-11-12T15:51:25.519Z,9.80
2022-11-12T15:53:28.861Z,8.73
2022-11-12T15:55:32.370Z,7.93
2022-11-12T15:57:39.423Z,7.70
2022-11-12T15:59:41.487Z,7.45
2022-11-12T16:01:43.712Z,7.95
2022-11-12T16:03:45.393Z,7.85
2022-11-12T16:05:48.498Z,7.13
2022-11-12T16:07:50.182Z,9.63
2022-11-12T16:09:52.438Z,9.00
2022-11-12T16:11:57.437Z,7.32
2022-11-12T16:13:59.378Z,7.78
2022-11-12T16:16:05.064Z,7.45
2022-11-12T16:18:10.636Z,8.20
2022-11-12T16:20:21.417Z,8.40
2022-11-12T16:22:23.081Z,8.15
2022-11-12T16:24:24.764Z,8.27
2022-11-12T16:26:29.761Z,9.20
2022-11-12T16:28:31.452Z,9.88
2022-11-12T16:30:33.936Z,9.07
2022-11-12T16:32:35.610Z,9.77
2022-11-12T16:34:37.268Z,10.75
2022-11-12T16:36:39.686Z,8.95
2022-11-12T16:38:41.659Z,9.50
2022-11-12T16:40:44.521Z,8.73
2022-11-12T16:42:46.258Z,9.60
2022-11-12T16:44:47.853Z,8.32
2022-11-12T16:46:49.474Z,9.15
2022-11-12T16:48:51.142Z,9.35
2022-11-12T16:50:52.906Z,7.82
2022-11-12T16:52:54.688Z,9.00
2022-11-12T16:55:00.097Z,9.43
2022-11-12T16:57:04.921Z,10.35
2022-11-12T16:59:06.648Z,11.05
2022-11-12T17:01:14.114Z,9.40
2022-11-12T17:03:16.168Z,9.15
2022-11-12T17:05:23.076Z,9.65
2022-11-12T17:07:24.793Z,9.57
2022-11-12T17:09:26.507Z,9.63
2022-11-12T17:11:28.106Z,9.23
2022-11-12T17:13:30.093Z,9.98
2022-11-12T17:15:31.859Z,10.18
2022-11-12T17:17:33.480Z,9.65
2022-11-12T17:19:35.118Z,11.23
2022-11-12T17:21:36.941Z,8.38
2022-11-12T17:23:39.317Z,9.95
2022-11-12T17:25:40.962Z,9.48
2022-11-12T17:27:42.623Z,9.55
2022-11-12T17:29:47.342Z,10.48
2022-11-12T17:31:49.393Z,9.30
2022-11-12T17:33:52.624Z,10.63
2022-11-12T17:35:54.227Z,10.20
2022-11-12T17:37:55.882Z,10.18
2022-11-12T17:39:57.522Z,8.82
2022-11-12T17:42:00.049Z,9.32
2022-11-12T17:44:02.302Z,9.02
2022-11-12T17:46:05.416Z,8.57
2022-11-12T17:48:07.097Z,8.98
2022-11-12T17:50:09.113Z,7.95
2022-11-12T17:52:10.756Z,8.93
2022-11-12T17:54:12.629Z,7.82
2022-11-12T17:56:17.086Z,9.07
2022-11-12T17:58:18.807Z,9.82
2022-11-12T18:00:20.541Z,8.27
2022-11-12T18:02:22.135Z,8.82
2022-11-12T18:04:24.073Z,9.32
2022-11-12T18:06:28.558Z,10.02
2022-11-12T18:08:30.581Z,10.13
2022-11-12T18:10:32.219Z,10.82
2022-11-12T18:12:33.881Z,11.10
2022-11-12T18:14:35.527Z,10.60
2022-11-12T18:16:37.542Z,9.70
2022-11-12T18:18:39.142Z,10.63
2022-11-12T18:20:42.484Z,10.98
2022-11-12T18:22:45.166Z,10.45
2022-11-12T18:24:51.838Z,10.40
2022-11-12T18:26:53.463Z,10.32
2022-11-12T18:28:56.262Z,11.13
2022-11-12T18:31:05.209Z,9.95
2022-11-12T18:33:06.986Z,9.90
2022-11-12T18:35:08.853Z,11.10
2022-11-12T18:37:13.469Z,10.55
2022-11-12T18:39:15.159Z,9.75
2022-11-12T18:41:18.017Z,11.25
2022-11-12T18:43:19.627Z,10.18
2022-11-12T18:45:21.228Z,12.80
2022-11-12T18:47:22.928Z,12.73
2022-11-12T18:49:24.557Z,14.15
2022-11-12T18:51:26.289Z,13.40
2022-11-12T18:53:29.276Z,12.90
2022-11-12T18:55:31.083Z,13.15
2022-11-12T18:57:32.665Z,11.77
2022-11-12T18:59:34.285Z,9.45
2022-11-12T19:01:35.922Z,11.45
2022-11-12T19:03:37.860Z,10.93
2022-11-12T19:05:39.500Z,11.98
2022-11-12T19:07:41.125Z,8.82
2022-11-12T19:09:42.878Z,9.95
2022-11-12T19:11:44.494Z,9.82
2022-11-12T19:13:50.325Z,10.15
2022-11-12T19:15:52.170Z,8.32
2022-11-12T19:17:53.790Z,9.82
2022-11-12T19:19:55.537Z,9.65
2022-11-12T19:21:57.117Z,8.63
2022-11-12T19:24:00.397Z,8.77
2022-11-12T19:26:03.811Z,9.35
2022-11-12T19:28:05.576Z,7.82
2022-11-12T19:30:07.983Z,8.93
2022-11-12T19:32:09.576Z,8.73
2022-11-12T19:34:11.186Z,9.35
2022-11-12T19:36:17.813Z,8.63
2022-11-12T19:38:19.456Z,9.63
2022-11-12T19:40:21.093Z,8.48
2022-11-12T19:42:22.798Z,8.07
2022-11-12T19:44:24.467Z,8.38
2022-11-12T19:46:26.071Z,8.43
2022-11-12T19:48:28.042Z,7.68
2022-11-12T19:50:30.831Z,9.27
2022-11-12T19:52:32.459Z,7.78
2022-11-12T19:54:34.077Z,8.07
2022-11-12T19:56:35.766Z,8.90
2022-11-12T19:58:37.554Z,9.43
2022-11-12T20:00:39.236Z,9.00
2022-11-12T20:02:40.856Z,7.82
2022-11-12T20:04:42.479Z,7.22
2022-11-12T20:06:44.114Z,7.88
2022-11-12T20:08:46.525Z,7.13
2022-11-12T20:10:48.147Z,6.80
2022-11-12T20:12:49.809Z,6.65
2022-11-12T20:14:51.461Z,7.40
2022-11-12T20:16:53.078Z,6.80
2022-11-12T20:18:55.789Z,8.27
2022-11-12T20:20:57.712Z,7.75
2022-11-12T20:22:59.345Z,6.55
2022-11-12T20:25:00.952Z,7.68
2022-11-12T20:27:02.775Z,6.65
2022-11-12T20:29:04.448Z,7.45
2022-11-12T20:31:14.590Z,7.43
2022-11-12T20:33:16.228Z,6.68
2022-11-12T20:35:22.031Z,7.93
2022-11-12T20:37:24.099Z,6.90
2022-11-12T20:39:25.833Z,6.57
2022-11-12T20:41:27.493Z,6.43
2022-11-12T20:43:29.446Z,6.60
2022-11-12T20:45:31.105Z,7.18
2022-11-12T20:47:33.374Z,5.93
2022-11-12T20:49:35.128Z,5.75
2022-11-12T20:51:36.770Z,6.38
2022-11-12T20:53:38.433Z,7.38
2022-11-12T20:55:40.058Z,6.20
2022-11-12T20:57:41.800Z,7.05
2022-11-12T20:59:43.406Z,6.43
2022-11-12T21:01:45.177Z,6.50
2022-11-12T21:03:47.479Z,5.75
2022-11-12T21:05:49.140Z,6.20
2022-11-12T21:07:51.044Z,6.65
2022-11-12T21:09:52.671Z,7.65
2022-11-12T21:11:54.334Z,6.18
2022-11-12T21:13:55.990Z,7.40
2022-11-12T21:15:57.641Z,7.72
2022-11-12T21:17:59.299Z,5.60
2022-11-12T21:20:00.957Z,5.97
2022-11-12T21:22:02.632Z,6.47
2022-11-12T21:24:05.385Z,7.22
2022-11-12T21:26:08.057Z,5.28
2022-11-12T21:28:09.675Z,5.80
2022-11-12T21:30:11.619Z,6.32
2022-11-12T21:32:13.318Z,5.22
2022-11-12T21:34:14.956Z,5.10
2022-11-12T21:36:16.886Z,6.35
2022-11-12T21:38:18.567Z,6.30
2022-11-12T21:40:20.360Z,6.03
2022-11-12T21:42:21.972Z,6.07
2022-11-12T21:44:23.581Z,5.80
2022-11-12T21:46:28.320Z,5.45
2022-11-12T21:48:30.159Z,6.20
2022-11-12T21:50:32.469Z,5.47
2022-11-12T21:52:37.210Z,4.60
2022-11-12T21:54:39.727Z,4.70
2022-11-12T21:56:42.096Z,5.60
2022-11-12T21:58:45.406Z,4.90
2022-11-12T22:00:47.036Z,4.88
2022-11-12T22:02:48.729Z,5.25
2022-11-12T22:04:50.329Z,4.03
2022-11-12T22:06:52.018Z,4.90
2022-11-12T22:08:55.037Z,4.07
2022-11-12T22:11:05.551Z,4.90
2022-11-12T22:13:26.356Z,4.90
2022-11-12T22:15:28.987Z,4.55
2022-11-12T22:17:33.268Z,4.38
2022-11-12T22:19:34.883Z,4.07
2022-11-12T22:21:39.960Z,5.32
2022-11-12T22:23:41.996Z,6.72
2022-11-12T22:25:43.608Z,6.93
2022-11-12T22:27:46.459Z,5.47
2022-11-12T22:29:48.082Z,5.90
2022-11-12T22:31:49.702Z,6.15
2022-11-12T22:33:51.365Z,5.53
2022-11-12T22:35:53.049Z,4.88
2022-11-12T22:37:54.911Z,5.53
2022-11-12T22:39:56.553Z,5.05
2022-11-12T22:41:58.160Z,5.50
2022-11-12T22:44:01.369Z,4.85
2022-11-12T22:46:08.502Z,4.63
2022-11-12T22:48:10.183Z,3.40
2022-11-12T22:50:11.904Z,4.20
2022-11-12T22:52:13.579Z,3.97
2022-11-12T22:54:18.070Z,3.92
2022-11-12T22:56:19.865Z,4.22
2022-11-12T22:58:22.247Z,3.50
2022-11-12T23:00:30.083Z,3.60
2022-11-12T23:02:31.780Z,4.03
2022-11-12T23:04:33.534Z,3.63
2022-11-12T23:06:35.679Z,4.10
2022-11-12T23:08:37.497Z,3.78
2022-11-12T23:10:44.547Z,3.45
2022-11-12T23:12:47.538Z,3.17
2022-11-12T23:14:49.148Z,3.45
2022-11-12T23:16:50.881Z,3.88
2022-11-12T23:18:53.150Z,3.33
2022-11-12T23:20:54.783Z,3.88
2022-11-12T23:22:56.415Z,2.60
2022-11-12T23:24:58.093Z,3.15
2022-11-12T23:27:01.256Z,4.25
2022-11-12T23:29:03.225Z,2.55
2022-11-12T23:31:09.931Z,3.20
2022-11-12T23:33:11.565Z,3.28
2022-11-12T23:35:13.194Z,2.92
2022-11-12T23:37:14.873Z,2.40
2022-11-12T23:39:16.526Z,2.45
2022-11-12T23:41:22.794Z,2.97
2022-11-12T23:43:24.487Z,3.60
2022-11-12T23:45:26.067Z,2.80
2022-11-12T23:47:27.736Z,2.67
2022-11-12T23:49:29.498Z,2.67
2022-11-12T23:51:31.148Z,2.53
2022-11-12T23:53:34.238Z,2.83
2022-11-12T23:55:38.444Z,2.72
2022-11-12T23:57:40.315Z,2.30
2022-11-12T23:59:41.933Z,3.38
